Aviation Digital Data Service (ADDS)

Output produced by METARs form (1011 UTC 01 October 2014)
found at http://aviationweather.gov/adds/metars/
 
KMPV 010520Z 0106/0206 VRB04KT 6SM BR SCT005 BKN014 
     TEMPO 0106/0110 2SM BR BKN005 
     FM011500 00000KT P6SM BKN030 
     FM012200 VRB02KT 6SM BR SCT009 BKN015